createdAt,value
2018-05-18T00:00:49.630Z,54.91
2018-05-18T00:03:17.032Z,55.58
2018-05-18T00:05:44.417Z,56.86
2018-05-18T00:08:11.799Z,56.47
2018-05-18T00:10:39.184Z,57.04
2018-05-18T00:13:06.573Z,57.75
2018-05-18T00:15:33.961Z,57.93
2018-05-18T00:18:01.350Z,57.75
2018-05-18T00:20:28.728Z,57.81
2018-05-18T00:22:56.116Z,58.83
2018-05-18T00:25:23.495Z,60.13
2018-05-18T00:27:50.879Z,59.13
2018-05-18T00:30:18.280Z,59.66
2018-05-18T00:32:45.655Z,60.83
2018-05-18T00:35:13.048Z,60.50
2018-05-18T00:37:40.436Z,61.69
2018-05-18T00:40:08.265Z,61.27
2018-05-18T00:42:35.643Z,61.98
2018-05-18T00:45:03.191Z,61.27
2018-05-18T00:47:30.501Z,61.45
2018-05-18T00:49:57.872Z,61.10
2018-05-18T00:52:25.246Z,59.92
2018-05-18T00:54:52.629Z,60.70
2018-05-18T00:57:20.015Z,60.13
2018-05-18T00:59:47.419Z,61.02
2018-05-18T01:02:14.798Z,60.90
2018-05-18T01:04:42.186Z,61.50
2018-05-18T01:07:09.627Z,59.87
2018-05-18T01:09:37.260Z,59.45
2018-05-18T01:12:04.640Z,58.77
2018-05-18T01:14:32.147Z,59.52
2018-05-18T01:16:59.514Z,59.60
2018-05-18T01:19:26.900Z,59.62
2018-05-18T01:21:54.391Z,60.23
2018-05-18T01:24:21.763Z,58.60
2018-05-18T01:26:49.154Z,58.50
2018-05-18T01:29:16.554Z,60.26
2018-05-18T01:31:43.947Z,58.69
2018-05-18T01:34:11.336Z,58.96
2018-05-18T01:36:38.710Z,59.87
2018-05-18T01:39:06.874Z,60.78
2018-05-18T01:41:34.262Z,60.77
2018-05-18T01:44:01.686Z,60.80
2018-05-18T01:46:29.151Z,59.87
2018-05-18T01:48:56.617Z,60.39
2018-05-18T01:51:23.995Z,61.55
2018-05-18T01:53:51.395Z,60.15
2018-05-18T01:56:18.870Z,60.05
2018-05-18T01:58:46.260Z,60.08
2018-05-18T02:01:13.695Z,60.64
2018-05-18T02:03:41.088Z,60.29
2018-05-18T02:06:08.729Z,59.40
2018-05-18T02:08:36.127Z,59.70
2018-05-18T02:11:03.536Z,59.67
2018-05-18T02:13:30.996Z,61.19
2018-05-18T02:15:58.450Z,61.79
2018-05-18T02:18:25.902Z,61.03
2018-05-18T02:20:53.278Z,59.98
2018-05-18T02:23:20.654Z,61.43
2018-05-18T02:25:48.381Z,60.16
2018-05-18T02:28:15.766Z,61.77
2018-05-18T02:30:43.147Z,62.02
2018-05-18T02:33:10.533Z,61.60
2018-05-18T02:35:38.875Z,61.35
2018-05-18T02:38:06.259Z,61.92
2018-05-18T02:40:33.750Z,63.97
2018-05-18T02:43:01.128Z,63.31
2018-05-18T02:45:29.016Z,63.85
2018-05-18T02:47:56.402Z,64.68
2018-05-18T02:50:23.792Z,63.13
2018-05-18T02:52:51.181Z,62.06
2018-05-18T02:55:18.566Z,62.82
2018-05-18T02:57:45.953Z,61.80
2018-05-18T03:00:13.344Z,62.35
2018-05-18T03:02:40.738Z,62.75
2018-05-18T03:05:09.016Z,62.80
2018-05-18T03:07:36.401Z,63.00
2018-05-18T03:10:03.799Z,64.04
2018-05-18T03:12:31.217Z,63.94
2018-05-18T03:14:58.601Z,64.33
2018-05-18T03:17:25.995Z,63.42
2018-05-18T03:19:53.381Z,63.29
2018-05-18T03:22:20.773Z,64.98
2018-05-18T03:24:48.168Z,65.13
2018-05-18T03:27:15.542Z,65.05
2018-05-18T03:29:42.937Z,65.27
2018-05-18T03:32:10.326Z,65.82
2018-05-18T03:34:37.720Z,64.96
2018-05-18T03:37:05.100Z,63.24
2018-05-18T03:39:32.525Z,63.24
2018-05-18T03:41:59.917Z,65.32
2018-05-18T03:44:27.304Z,65.02
2018-05-18T03:46:54.683Z,65.54
2018-05-18T03:49:22.081Z,65.00
2018-05-18T03:51:49.459Z,64.42
2018-05-18T03:54:16.845Z,63.48
2018-05-18T03:56:44.240Z,64.66
2018-05-18T03:59:11.682Z,64.40
2018-05-18T04:01:51.114Z,64.32
2018-05-18T04:04:30.249Z,65.76
2018-05-18T04:07:09.544Z,65.40
2018-05-18T04:09:36.974Z,66.93
2018-05-18T04:12:04.359Z,65.52
2018-05-18T04:14:31.862Z,65.59
2018-05-18T04:16:59.406Z,64.83
2018-05-18T04:19:26.880Z,62.82
2018-05-18T04:21:54.364Z,62.98
2018-05-18T04:24:21.794Z,64.39
2018-05-18T04:26:49.259Z,62.87
2018-05-18T04:29:16.719Z,64.29
2018-05-18T04:31:44.098Z,63.18
2018-05-18T04:34:11.478Z,64.38
2018-05-18T04:36:39.472Z,63.90
2018-05-18T04:39:06.858Z,66.08
2018-05-18T04:41:34.255Z,65.48
2018-05-18T04:44:01.668Z,63.60
2018-05-18T04:46:29.066Z,64.27
2018-05-18T04:48:56.462Z,64.29
2018-05-18T04:51:23.862Z,65.14
2018-05-18T04:53:51.299Z,64.41
2018-05-18T04:56:18.696Z,63.93
2018-05-18T04:58:46.180Z,64.06
2018-05-18T05:01:13.491Z,63.68
2018-05-18T05:03:40.872Z,64.54
2018-05-18T05:06:08.287Z,64.67
2018-05-18T05:08:35.681Z,64.23
2018-05-18T05:11:03.118Z,64.74
2018-05-18T05:13:30.492Z,63.55
2018-05-18T05:15:57.907Z,64.24
2018-05-18T05:18:26.160Z,63.39
2018-05-18T05:20:53.564Z,63.94
2018-05-18T05:23:20.944Z,63.23
2018-05-18T05:25:48.345Z,63.24
2018-05-18T05:28:15.730Z,64.68
2018-05-18T05:30:43.131Z,64.56
2018-05-18T05:33:10.651Z,64.23
2018-05-18T05:35:38.085Z,64.01
2018-05-18T05:38:05.475Z,64.92
2018-05-18T05:40:32.895Z,65.06
2018-05-18T05:43:00.294Z,64.78
2018-05-18T05:45:27.712Z,63.93
2018-05-18T05:47:55.197Z,64.57
2018-05-18T05:50:22.575Z,63.67
2018-05-18T05:52:50.013Z,63.84
2018-05-18T05:55:17.362Z,64.72
2018-05-18T05:57:44.797Z,64.29
2018-05-18T06:00:12.194Z,64.98
2018-05-18T06:02:39.901Z,64.18
2018-05-18T06:05:07.307Z,64.11
2018-05-18T06:07:34.704Z,65.75
2018-05-18T06:10:02.105Z,65.73
2018-05-18T06:12:29.504Z,65.14
2018-05-18T06:14:56.919Z,64.61
2018-05-18T06:17:24.300Z,63.85
2018-05-18T06:19:51.699Z,64.43
2018-05-18T06:22:19.122Z,64.46
2018-05-18T06:24:46.517Z,64.16
2018-05-18T06:27:13.918Z,64.20
2018-05-18T06:29:41.319Z,63.87
2018-05-18T06:32:08.715Z,64.98
2018-05-18T06:34:36.231Z,64.60
2018-05-18T06:37:03.560Z,64.36
2018-05-18T06:39:30.951Z,65.13
2018-05-18T06:41:58.367Z,65.33
2018-05-18T06:44:25.755Z,64.29
2018-05-18T06:46:53.216Z,63.49
2018-05-18T06:49:20.562Z,64.23
2018-05-18T06:51:47.976Z,63.74
2018-05-18T06:54:15.364Z,63.92
2018-05-18T06:56:42.767Z,63.52
2018-05-18T06:59:10.204Z,62.80
2018-05-18T07:01:37.605Z,62.89
2018-05-18T07:04:05.985Z,62.75
2018-05-18T07:06:33.327Z,62.14
2018-05-18T07:09:00.800Z,61.93
2018-05-18T07:11:28.214Z,61.95
2018-05-18T07:13:55.620Z,61.79
2018-05-18T07:16:23.060Z,61.41
2018-05-18T07:18:50.469Z,61.83
2018-05-18T07:21:17.987Z,61.74
2018-05-18T07:23:45.368Z,60.61
2018-05-18T07:26:12.767Z,60.80
2018-05-18T07:28:40.785Z,60.20
2018-05-18T07:31:08.202Z,59.88
2018-05-18T07:33:35.623Z,59.55
2018-05-18T07:36:03.045Z,59.53
2018-05-18T07:38:30.408Z,59.83
2018-05-18T07:40:57.961Z,59.29
2018-05-18T07:43:25.364Z,59.32
2018-05-18T07:45:52.926Z,59.33
2018-05-18T07:48:20.338Z,59.06
2018-05-18T07:50:47.742Z,59.68
2018-05-18T07:53:15.135Z,58.54
2018-05-18T07:55:42.533Z,58.45
2018-05-18T07:58:10.503Z,59.99
2018-05-18T08:00:37.910Z,57.68
2018-05-18T08:03:05.333Z,56.77
2018-05-18T08:05:32.879Z,58.14
2018-05-18T08:08:00.263Z,58.67
2018-05-18T08:10:27.663Z,59.20
2018-05-18T08:12:55.055Z,58.80
2018-05-18T08:15:22.460Z,58.14
2018-05-18T08:17:49.835Z,58.10
2018-05-18T08:20:17.220Z,57.20
2018-05-18T08:22:44.633Z,57.85
2018-05-18T08:25:12.160Z,57.07
2018-05-18T08:27:39.562Z,56.31
2018-05-18T08:30:06.936Z,55.48
2018-05-18T08:32:34.334Z,55.11
2018-05-18T08:35:01.719Z,55.35
2018-05-18T08:37:29.247Z,53.39
2018-05-18T08:39:56.658Z,53.65
2018-05-18T08:42:24.054Z,54.15
2018-05-18T08:44:51.685Z,54.71
2018-05-18T08:47:19.198Z,54.06
2018-05-18T08:49:46.589Z,53.79
2018-05-18T08:52:13.983Z,54.54
2018-05-18T08:54:41.379Z,55.47
2018-05-18T08:57:08.789Z,55.68
2018-05-18T08:59:36.248Z,55.16
2018-05-18T09:02:03.655Z,52.80
2018-05-18T09:04:31.055Z,52.40
2018-05-18T09:06:58.452Z,51.99
2018-05-18T09:09:25.853Z,52.46
2018-05-18T09:11:53.312Z,52.90
2018-05-18T09:14:20.703Z,52.98
2018-05-18T09:16:48.107Z,52.28
2018-05-18T09:19:15.566Z,51.15
2018-05-18T09:21:42.960Z,51.71
2018-05-18T09:24:10.938Z,52.83
2018-05-18T09:26:38.351Z,50.85
2018-05-18T09:29:05.723Z,51.38
2018-05-18T09:31:33.130Z,50.07
2018-05-18T09:34:00.580Z,49.39
2018-05-18T09:36:27.903Z,50.49
2018-05-18T09:38:55.301Z,50.08
2018-05-18T09:41:22.730Z,50.29
2018-05-18T09:43:50.145Z,52.23
2018-05-18T09:46:17.526Z,50.16
2018-05-18T09:48:44.916Z,50.65
2018-05-18T09:51:12.319Z,48.56
2018-05-18T09:53:39.701Z,49.81
2018-05-18T09:56:07.096Z,49.22
2018-05-18T09:58:34.494Z,48.97
2018-05-18T10:01:01.889Z,48.90
2018-05-18T10:03:29.283Z,47.21
2018-05-18T10:05:57.022Z,46.88
2018-05-18T10:08:24.403Z,46.25
2018-05-18T10:10:51.824Z,46.89
2018-05-18T10:13:19.209Z,47.02
2018-05-18T10:15:46.613Z,48.22
2018-05-18T10:20:51.924Z,47.90
2018-05-18T10:23:19.319Z,48.60
2018-05-18T10:25:46.698Z,48.11
2018-05-18T10:28:14.115Z,47.04
2018-05-18T10:30:41.516Z,47.39
2018-05-18T10:33:08.932Z,43.89
2018-05-18T10:35:36.345Z,46.16
2018-05-18T10:38:03.759Z,45.12
2018-05-18T10:40:31.256Z,46.06
2018-05-18T10:42:58.678Z,45.54
2018-05-18T10:45:26.148Z,47.61
2018-05-18T10:47:53.533Z,45.10
2018-05-18T10:50:20.926Z,43.60
2018-05-18T10:52:48.329Z,43.70
2018-05-18T10:55:15.713Z,46.58
2018-05-18T10:57:43.111Z,44.55
2018-05-18T11:00:11.483Z,43.15
2018-05-18T11:02:38.912Z,45.31
2018-05-18T11:05:06.325Z,44.52
2018-05-18T11:07:33.964Z,46.31
2018-05-18T11:10:01.464Z,42.94
2018-05-18T11:12:29.082Z,43.35
2018-05-18T11:14:56.583Z,44.34
2018-05-18T11:17:25.136Z,45.38
2018-05-18T11:19:52.556Z,43.06
2018-05-18T11:22:19.952Z,44.11
2018-05-18T11:24:47.587Z,43.63
2018-05-18T11:27:15.025Z,43.89
2018-05-18T11:29:42.411Z,43.54
2018-05-18T11:32:09.842Z,43.81
2018-05-18T11:34:37.226Z,42.78
2018-05-18T11:37:04.631Z,42.78
2018-05-18T11:39:32.059Z,43.87
2018-05-18T11:41:59.442Z,44.80
2018-05-18T11:44:26.836Z,45.54
2018-05-18T11:46:54.244Z,44.97
2018-05-18T11:49:21.641Z,44.32
2018-05-18T11:51:49.034Z,43.27
2018-05-18T11:54:16.441Z,42.77
2018-05-18T11:56:44.066Z,41.27
2018-05-18T11:59:11.679Z,40.38
2018-05-18T12:01:39.074Z,40.92
2018-05-18T12:04:06.474Z,43.44
2018-05-18T12:06:33.884Z,43.52
2018-05-18T12:09:01.280Z,42.30
2018-05-18T12:11:28.688Z,40.63
2018-05-18T12:13:56.077Z,40.51
2018-05-18T12:16:23.475Z,38.96
2018-05-18T12:18:51.129Z,38.45
2018-05-18T12:21:18.628Z,39.20
2018-05-18T12:23:46.051Z,41.77
2018-05-18T12:26:13.583Z,41.64
2018-05-18T12:28:41.874Z,40.43
2018-05-18T12:31:09.255Z,41.79
2018-05-18T12:33:36.659Z,39.86
2018-05-18T12:36:04.055Z,36.21
2018-05-18T12:38:31.465Z,35.98
2018-05-18T12:40:58.875Z,33.59
2018-05-18T12:43:26.284Z,34.69
2018-05-18T12:45:53.677Z,36.94
2018-05-18T12:48:21.075Z,37.18
2018-05-18T12:50:48.471Z,36.50
2018-05-18T12:53:15.886Z,39.23
2018-05-18T12:55:43.274Z,39.73
2018-05-18T12:58:10.683Z,38.84
2018-05-18T13:00:38.079Z,37.28
2018-05-18T13:03:05.493Z,38.65
2018-05-18T13:05:32.890Z,36.34
2018-05-18T13:08:00.421Z,34.57
2018-05-18T13:10:27.873Z,34.41
2018-05-18T13:12:55.623Z,35.99
2018-05-18T13:15:23.268Z,37.86
2018-05-18T13:17:50.706Z,35.92
2018-05-18T13:20:18.112Z,36.86
2018-05-18T13:22:46.465Z,35.54
2018-05-18T13:25:14.408Z,37.08
2018-05-18T13:27:42.197Z,36.99
2018-05-18T13:30:09.841Z,38.16
2018-05-18T13:32:37.236Z,36.10
2018-05-18T13:35:04.878Z,37.08
2018-05-18T13:37:32.493Z,36.15
2018-05-18T13:40:00.097Z,34.07
2018-05-18T13:42:27.553Z,34.03
2018-05-18T13:44:55.229Z,31.21
2018-05-18T13:47:22.824Z,31.09
2018-05-18T13:49:50.484Z,32.47
2018-05-18T13:52:17.957Z,31.68
2018-05-18T13:54:59.032Z,31.48
2018-05-18T13:57:26.441Z,33.11
2018-05-18T13:59:53.850Z,33.75
2018-05-18T14:02:21.446Z,36.10
2018-05-18T14:04:48.857Z,36.61
2018-05-18T14:07:16.249Z,34.85
2018-05-18T14:09:43.647Z,31.97
2018-05-18T14:12:11.048Z,30.44
2018-05-18T14:14:38.443Z,31.11
2018-05-18T14:17:06.167Z,30.69
2018-05-18T14:19:33.534Z,29.52
2018-05-18T14:22:00.923Z,27.88
2018-05-18T14:24:28.310Z,28.96
2018-05-18T14:26:55.709Z,28.34
2018-05-18T14:29:23.106Z,29.88
2018-05-18T14:31:50.519Z,30.48
2018-05-18T14:34:17.895Z,29.39
2018-05-18T14:36:45.286Z,29.71
2018-05-18T14:39:12.682Z,31.91
2018-05-18T14:41:40.066Z,34.58
2018-05-18T14:44:07.455Z,31.43
2018-05-18T14:46:34.853Z,29.74
2018-05-18T14:49:02.250Z,29.61
2018-05-18T14:51:29.627Z,30.14
2018-05-18T14:53:57.018Z,30.95
2018-05-18T14:56:24.410Z,32.60
2018-05-18T14:58:51.818Z,32.19
2018-05-18T15:01:19.209Z,31.40
2018-05-18T15:03:46.607Z,31.53
2018-05-18T15:06:14.224Z,30.13
2018-05-18T15:08:42.614Z,30.34
2018-05-18T15:11:10.003Z,29.48
2018-05-18T15:13:37.387Z,29.99
2018-05-18T15:16:04.785Z,29.94
2018-05-18T15:18:32.192Z,28.82
2018-05-18T15:20:59.571Z,29.24
2018-05-18T15:23:26.996Z,31.95
2018-05-18T15:25:54.396Z,34.07
2018-05-18T15:28:21.777Z,31.74
2018-05-18T15:30:49.174Z,31.22
2018-05-18T15:33:16.572Z,29.65
2018-05-18T15:35:43.974Z,30.87
2018-05-18T15:38:11.367Z,29.87
2018-05-18T15:40:38.756Z,27.78
2018-05-18T15:43:06.143Z,27.65
2018-05-18T15:45:33.541Z,29.09
2018-05-18T15:48:00.931Z,28.93
2018-05-18T15:50:28.334Z,29.78
2018-05-18T15:52:56.619Z,28.07
2018-05-18T15:55:24.010Z,27.26
2018-05-18T15:57:51.452Z,27.80
2018-05-18T16:00:18.829Z,27.97
2018-05-18T16:02:46.224Z,27.67
2018-05-18T16:05:13.611Z,28.86
2018-05-18T16:07:41.019Z,28.60
2018-05-18T16:10:08.412Z,28.97
2018-05-18T16:12:35.804Z,28.96
2018-05-18T16:15:03.247Z,29.61
2018-05-18T16:17:30.644Z,31.44
2018-05-18T16:19:58.046Z,34.04
2018-05-18T16:22:25.453Z,35.36
2018-05-18T16:24:52.827Z,34.37
2018-05-18T16:27:20.230Z,37.21
2018-05-18T16:29:47.619Z,36.39
2018-05-18T16:32:15.017Z,35.68
2018-05-18T16:34:48.073Z,37.80
2018-05-18T16:37:15.458Z,37.15
2018-05-18T16:39:43.496Z,37.93
2018-05-18T16:42:10.897Z,37.03
2018-05-18T16:44:38.282Z,39.68
2018-05-18T16:47:05.675Z,38.68
2018-05-18T16:49:33.064Z,38.31
2018-05-18T16:52:00.455Z,37.93
2018-05-18T16:54:27.850Z,38.13
2018-05-18T16:56:55.236Z,38.57
2018-05-18T16:59:22.636Z,39.07
2018-05-18T17:01:50.036Z,38.99
2018-05-18T17:04:17.428Z,39.04
2018-05-18T17:06:44.803Z,39.26
2018-05-18T17:09:12.198Z,39.57
2018-05-18T17:11:39.582Z,40.42
2018-05-18T17:14:06.967Z,39.38
2018-05-18T17:16:34.343Z,40.37
2018-05-18T17:19:01.738Z,40.21
2018-05-18T17:21:29.131Z,40.39
2018-05-18T17:23:56.512Z,40.42
2018-05-18T17:26:23.912Z,40.21
2018-05-18T17:28:51.306Z,40.76
2018-05-18T17:31:18.708Z,40.85
2018-05-18T17:33:46.108Z,41.08
2018-05-18T17:36:13.575Z,41.58
2018-05-18T17:38:41.631Z,42.74
2018-05-18T17:41:09.029Z,42.65
2018-05-18T17:43:36.418Z,42.65
2018-05-18T17:46:03.818Z,44.26
2018-05-18T17:48:31.232Z,44.43
2018-05-18T17:50:58.636Z,43.13
2018-05-18T17:53:26.025Z,43.90
2018-05-18T17:55:53.414Z,44.02
2018-05-18T17:58:20.812Z,43.96
2018-05-18T18:00:48.204Z,44.40
2018-05-18T18:03:15.583Z,44.77
2018-05-18T18:05:43.717Z,43.93
2018-05-18T18:08:11.089Z,44.03
2018-05-18T18:10:38.458Z,44.77
2018-05-18T18:13:05.871Z,43.93
2018-05-18T18:15:33.264Z,44.33
2018-05-18T18:18:00.655Z,45.37
2018-05-18T18:20:28.042Z,44.56
2018-05-18T18:22:55.443Z,45.13
2018-05-18T18:25:22.834Z,47.01
2018-05-18T18:27:50.235Z,45.73
2018-05-18T18:30:17.620Z,46.02
2018-05-18T18:32:45.029Z,47.92
2018-05-18T18:35:12.415Z,46.81
2018-05-18T18:37:39.802Z,47.00
2018-05-18T18:40:07.195Z,45.89
2018-05-18T18:42:34.590Z,46.13
2018-05-18T18:45:01.988Z,46.58
2018-05-18T18:47:29.370Z,46.98
2018-05-18T18:49:56.766Z,47.88
2018-05-18T18:52:24.159Z,48.35
2018-05-18T18:54:51.535Z,49.36
2018-05-18T18:57:18.935Z,49.13
2018-05-18T18:59:46.321Z,47.02
2018-05-18T19:02:13.879Z,48.52
2018-05-18T19:07:15.487Z,47.62
2018-05-18T19:09:42.888Z,47.61
2018-05-18T19:12:10.321Z,48.27
2018-05-18T19:14:37.699Z,48.00
2018-05-18T19:17:05.111Z,49.01
2018-05-18T19:19:32.490Z,49.07
2018-05-18T19:21:59.890Z,48.96
2018-05-18T19:24:27.275Z,49.07
2018-05-18T19:26:54.666Z,49.11
2018-05-18T19:29:22.058Z,49.17
2018-05-18T19:31:49.426Z,49.95
2018-05-18T19:34:16.824Z,49.30
2018-05-18T19:36:44.217Z,50.77
2018-05-18T19:39:11.608Z,49.25
2018-05-18T19:41:39.002Z,50.03
2018-05-18T19:44:06.395Z,49.90
2018-05-18T19:46:33.795Z,50.11
2018-05-18T19:49:01.195Z,50.50
2018-05-18T19:51:28.599Z,50.97
2018-05-18T19:53:55.992Z,50.04
2018-05-18T19:56:23.383Z,50.26
2018-05-18T19:58:50.774Z,50.77
2018-05-18T20:01:18.159Z,51.19
2018-05-18T20:03:45.576Z,52.65
2018-05-18T20:06:12.948Z,51.99
2018-05-18T20:08:40.352Z,51.63
2018-05-18T20:11:07.735Z,51.44
2018-05-18T20:13:35.138Z,51.85
2018-05-18T20:16:02.528Z,51.50
2018-05-18T20:18:29.927Z,52.18
2018-05-18T20:20:57.318Z,51.95
2018-05-18T20:23:24.725Z,50.95
2018-05-18T20:25:52.106Z,51.71
2018-05-18T20:28:19.503Z,52.04
2018-05-18T20:30:46.896Z,54.16
2018-05-18T20:33:14.589Z,53.58
2018-05-18T20:35:41.951Z,53.59
2018-05-18T20:38:09.426Z,53.13
2018-05-18T20:40:36.756Z,52.02
2018-05-18T20:43:04.151Z,53.76
2018-05-18T20:45:31.548Z,53.92
2018-05-18T20:47:58.944Z,52.83
2018-05-18T20:50:26.346Z,54.03
2018-05-18T20:52:53.750Z,53.10
2018-05-18T20:55:21.139Z,53.20
2018-05-18T20:57:48.519Z,52.87
2018-05-18T21:00:15.923Z,53.36
2018-05-18T21:02:43.314Z,54.66
2018-05-18T21:05:10.702Z,54.67
2018-05-18T21:07:38.098Z,54.78
2018-05-18T21:10:05.499Z,53.68
2018-05-18T21:12:32.883Z,54.45
2018-05-18T21:15:00.274Z,54.85
2018-05-18T21:17:27.664Z,55.03
2018-05-18T21:19:55.051Z,55.37
2018-05-18T21:22:22.436Z,55.56
2018-05-18T21:27:23.762Z,55.83
2018-05-18T21:29:51.164Z,56.00
2018-05-18T21:32:18.550Z,56.77
2018-05-18T21:34:45.959Z,56.56
2018-05-18T21:37:13.355Z,56.83
2018-05-18T21:39:40.751Z,56.09
2018-05-18T21:42:08.139Z,55.94
2018-05-18T21:44:35.543Z,55.82
2018-05-18T21:47:02.933Z,56.58
2018-05-18T21:49:30.331Z,56.93
2018-05-18T21:51:57.727Z,57.79
2018-05-18T21:54:25.127Z,56.33
2018-05-18T21:56:52.523Z,56.45
2018-05-18T21:59:19.924Z,57.58
2018-05-18T22:01:47.319Z,56.97
2018-05-18T22:04:14.909Z,57.26
2018-05-18T22:06:42.292Z,57.83
2018-05-18T22:09:09.713Z,57.43
2018-05-18T22:11:37.104Z,56.37
2018-05-18T22:14:04.547Z,58.82
2018-05-18T22:16:31.884Z,57.50
2018-05-18T22:18:59.285Z,58.50
2018-05-18T22:21:26.677Z,58.28
2018-05-18T22:23:54.070Z,57.78
2018-05-18T22:26:21.463Z,58.57
2018-05-18T22:28:48.839Z,57.68
2018-05-18T22:31:16.240Z,57.86
2018-05-18T22:33:43.627Z,57.63
2018-05-18T22:36:11.016Z,58.27
2018-05-18T22:38:38.398Z,57.95
2018-05-18T22:41:05.797Z,57.82
2018-05-18T22:43:33.183Z,57.44
2018-05-18T22:46:00.577Z,57.04
2018-05-18T22:48:27.977Z,56.83
2018-05-18T22:50:55.362Z,56.67
2018-05-18T22:53:22.751Z,58.30
2018-05-18T22:55:50.159Z,57.99
2018-05-18T22:58:17.539Z,59.05
2018-05-18T23:00:45.203Z,58.32
2018-05-18T23:03:12.682Z,57.67
2018-05-18T23:05:40.415Z,58.87
2018-05-18T23:08:07.798Z,58.80
2018-05-18T23:10:35.203Z,57.68
2018-05-18T23:13:02.587Z,59.02
2018-05-18T23:15:29.982Z,59.54
2018-05-18T23:17:57.371Z,59.42
2018-05-18T23:20:24.776Z,58.74
2018-05-18T23:22:52.179Z,60.02
2018-05-18T23:25:19.578Z,59.60
2018-05-18T23:27:46.963Z,60.04
2018-05-18T23:30:14.355Z,59.07
2018-05-18T23:32:41.832Z,60.02
2018-05-18T23:35:09.269Z,59.30
2018-05-18T23:37:36.820Z,60.10
2018-05-18T23:40:04.423Z,59.69
2018-05-18T23:42:31.840Z,59.65
2018-05-18T23:44:59.315Z,60.13
2018-05-18T23:47:26.761Z,59.32
2018-05-18T23:49:54.338Z,59.95
2018-05-18T23:52:21.900Z,59.65
2018-05-18T23:54:49.326Z,59.49
2018-05-18T23:57:16.772Z,60.07
2018-05-18T23:59:44.566Z,59.92
